Huvudsida
METAR-TAF:

METAR-TAF

Flygplatser :

Rørvik, Norge

Rørviks flygplats. Ryum

latitud: 64-50N, longitud: 011-09E, höjd: 4 m

Aktuellt väderrapport

Denna rapport gjordes för 40 minuter sedan, klockan 10:20 UTC
Vind 21 kt från ost/sydost i byarna ända upp till 33 kt
Temperatur 1°C
Fuktighet 59%
Tryck 988 hPa
Sikt 10 km eller mer
Inga moln under 1 500 m eller inga cumulonimbus

METAR: ENRM 171020Z 11021G33KT CAVOK 01/M06 Q0988

Tid: 12:00 (11:00 UTC)

Väderprognos

Denna rapport gjordes för 3 timmar och 0 minuter sedan, klockan 08:00 UTC
Prognos gäller från 17 kl. 09 UTC till 17 kl. 18 UTC
Vind 18 kt från ost/sydost i byarna ända upp till 30 kt
Sikt 10 km eller mer
Inga moln under 1 500 m eller inga cumulonimbus

TAF: ENRM 170800Z 1709/1718 12018G30KT CAVOK

Aktuella väderrapporter och prognoser från 4000 flygplatser (METAR- och TAF-rapporter).

De tillgängliga stationerna syns som gula och röda prickar på kartan.

För musen över prickarna för att se namnen på stationerna.

Klicka sedan för att få väderrapporter och prognoser.

För att ändra kartan: Klicka på de gröna knapparna med ett svart kors på för att zooma in; den gröna knappen med ett streck på för att zooma ut; eller på de gröna pilarna för angränsande kartor.


METAR-TAF: